createdAt,value
2017-08-18T00:00:31.010Z,963.1
2017-08-18T00:01:11.812Z,963.13
2017-08-18T00:01:52.635Z,963.14
2017-08-18T00:02:33.412Z,963.14
2017-08-18T00:03:14.212Z,963.1
2017-08-18T00:03:55.611Z,963.13
2017-08-18T00:04:35.932Z,963.1
2017-08-18T00:05:16.733Z,963.14
2017-08-18T00:05:57.533Z,963.14
2017-08-18T00:06:38.337Z,963.15
2017-08-18T00:07:19.135Z,963.15
2017-08-18T00:07:59.934Z,963.16
2017-08-18T00:08:40.735Z,963.13
2017-08-18T00:10:38.724Z,963.13
2017-08-18T00:11:19.615Z,963.1
2017-08-18T00:12:00.430Z,963.11
2017-08-18T00:12:41.218Z,963.13
2017-08-18T00:13:22.015Z,963.09
2017-08-18T00:14:02.817Z,963.11
2017-08-18T00:14:43.618Z,963.11
2017-08-18T00:15:24.417Z,963.09
2017-08-18T00:16:05.217Z,963.07
2017-08-18T00:16:46.019Z,963.04
2017-08-18T00:17:26.818Z,963.03
2017-08-18T00:18:07.619Z,963
2017-08-18T00:18:48.418Z,963.01
2017-08-18T00:19:29.219Z,962.99
2017-08-18T00:20:10.020Z,962.97
2017-08-18T00:20:50.820Z,962.96
2017-08-18T00:21:31.741Z,962.98
2017-08-18T00:22:12.541Z,963
2017-08-18T00:22:53.341Z,963.03
2017-08-18T00:23:34.262Z,963.01
2017-08-18T00:24:15.062Z,963
2017-08-18T00:26:41.824Z,962.95
2017-08-18T00:27:22.622Z,962.96
2017-08-18T00:28:03.422Z,962.97
2017-08-18T00:28:44.226Z,962.96
2017-08-18T00:29:25.024Z,962.99
2017-08-18T00:30:05.823Z,963.01
2017-08-18T00:30:46.624Z,962.97
2017-08-18T00:31:27.424Z,963.03
2017-08-18T00:32:08.227Z,963.03
2017-08-18T00:32:49.026Z,963.04
2017-08-18T00:33:29.826Z,963.03
2017-08-18T00:34:10.626Z,963.01
2017-08-18T00:34:51.547Z,963.01
2017-08-18T00:35:32.346Z,963.06
2017-08-18T00:36:13.147Z,963.03
2017-08-18T00:36:54.067Z,963.06
2017-08-18T00:37:34.868Z,963.08
2017-08-18T00:38:15.673Z,963.08
2017-08-18T00:38:56.468Z,963.08
2017-08-18T00:39:37.270Z,963.09
2017-08-18T00:40:18.068Z,963.09
2017-08-18T00:40:58.871Z,963.09
2017-08-18T00:41:39.669Z,963.11
2017-08-18T00:42:20.475Z,963.06
2017-08-18T00:43:01.270Z,963.11
2017-08-18T00:43:42.071Z,963.11
2017-08-18T00:44:22.870Z,963.12
2017-08-18T00:45:03.673Z,963.11
2017-08-18T00:45:44.492Z,963.12
2017-08-18T00:46:25.271Z,963.08
2017-08-18T00:47:06.073Z,963.13
2017-08-18T00:47:46.873Z,963.09
2017-08-18T00:48:27.673Z,963.06
2017-08-18T00:49:08.472Z,963.07
2017-08-18T00:49:49.273Z,963.04
2017-08-18T00:50:30.073Z,963.04
2017-08-18T00:51:10.874Z,963.04
2017-08-18T00:51:51.674Z,963.04
2017-08-18T00:52:32.474Z,962.98
2017-08-18T00:53:13.275Z,963.01
2017-08-18T00:53:54.074Z,963.02
2017-08-18T00:54:34.874Z,962.98
2017-08-18T00:55:15.675Z,963
2017-08-18T00:55:56.475Z,962.99
2017-08-18T00:56:37.278Z,962.97
2017-08-18T00:57:18.075Z,962.99
2017-08-18T00:57:58.876Z,962.98
2017-08-18T00:58:39.676Z,962.97
2017-08-18T00:59:20.493Z,963.01
2017-08-18T01:00:01.297Z,962.97
2017-08-18T01:00:42.102Z,962.95
2017-08-18T01:01:22.758Z,962.98
2017-08-18T01:02:03.559Z,962.97
2017-08-18T01:02:44.358Z,962.97
2017-08-18T01:03:25.159Z,962.95
2017-08-18T01:04:05.959Z,962.99
2017-08-18T01:04:46.762Z,962.95
2017-08-18T01:05:27.559Z,962.99
2017-08-18T01:06:08.375Z,962.97
2017-08-18T01:06:49.175Z,962.99
2017-08-18T01:07:29.981Z,963
2017-08-18T01:08:10.761Z,962.96
2017-08-18T01:08:51.562Z,962.98
2017-08-18T01:09:32.361Z,963.02
2017-08-18T01:10:13.162Z,962.98
2017-08-18T01:12:11.122Z,962.94
2017-08-18T01:12:51.924Z,962.94
2017-08-18T01:13:33.323Z,962.91
2017-08-18T01:14:14.123Z,962.96
2017-08-18T01:14:54.924Z,962.92
2017-08-18T01:15:35.724Z,962.93
2017-08-18T01:16:16.524Z,962.92
2017-08-18T01:16:57.325Z,962.96
2017-08-18T01:17:38.125Z,962.93
2017-08-18T01:18:18.925Z,962.94
2017-08-18T01:18:59.725Z,962.93
2017-08-18T01:19:40.526Z,962.92
2017-08-18T01:20:21.330Z,962.9
2017-08-18T01:21:02.127Z,962.88
2017-08-18T01:21:42.927Z,962.88
2017-08-18T01:22:23.728Z,962.87
2017-08-18T01:23:04.528Z,962.9
2017-08-18T01:23:45.328Z,962.9
2017-08-18T01:24:26.127Z,962.93
2017-08-18T01:25:06.929Z,962.9
2017-08-18T01:25:47.728Z,962.92
2017-08-18T01:26:28.535Z,962.94
2017-08-18T01:27:09.329Z,962.95
2017-08-18T01:27:50.130Z,962.94
2017-08-18T01:28:30.930Z,962.94
2017-08-18T01:29:11.730Z,962.91
2017-08-18T01:29:52.533Z,962.93
2017-08-18T01:30:33.331Z,962.89
2017-08-18T01:31:14.132Z,962.88
2017-08-18T01:31:54.932Z,962.86
2017-08-18T01:32:35.730Z,962.89
2017-08-18T01:33:16.533Z,962.84
2017-08-18T01:33:57.332Z,962.87
2017-08-18T01:34:38.134Z,962.91
2017-08-18T01:35:18.934Z,962.87
2017-08-18T01:36:04.444Z,962.89
2017-08-18T01:36:45.334Z,962.89
2017-08-18T01:37:26.135Z,962.89
2017-08-18T01:38:06.935Z,962.85
2017-08-18T01:38:47.735Z,962.82
2017-08-18T01:39:28.538Z,962.81
2017-08-18T01:40:09.336Z,962.82
2017-08-18T01:40:50.136Z,962.8
2017-08-18T01:41:30.935Z,962.8
2017-08-18T01:42:11.736Z,962.8
2017-08-18T01:42:52.535Z,962.79
2017-08-18T01:43:33.337Z,962.8
2017-08-18T01:44:14.138Z,962.78
2017-08-18T01:44:54.937Z,962.76
2017-08-18T01:45:35.746Z,962.76
2017-08-18T01:46:16.538Z,962.76
2017-08-18T01:46:57.339Z,962.76
2017-08-18T01:47:38.137Z,962.78
2017-08-18T01:48:18.939Z,962.76
2017-08-18T01:48:59.740Z,962.78
2017-08-18T01:49:40.540Z,962.73
2017-08-18T01:50:21.340Z,962.75
2017-08-18T01:51:02.140Z,962.74
2017-08-18T01:51:42.941Z,962.72
2017-08-18T01:52:23.741Z,962.71
2017-08-18T01:53:04.541Z,962.72
2017-08-18T01:53:45.340Z,962.67
2017-08-18T01:54:26.142Z,962.67
2017-08-18T01:55:06.942Z,962.68
2017-08-18T01:55:47.742Z,962.66
2017-08-18T01:56:28.545Z,962.68
2017-08-18T01:57:09.343Z,962.68
2017-08-18T01:57:50.143Z,962.68
2017-08-18T01:58:30.943Z,962.63
2017-08-18T01:59:11.746Z,962.66
2017-08-18T01:59:52.544Z,962.67
2017-08-18T02:00:33.345Z,962.69
2017-08-18T02:01:14.146Z,962.69
2017-08-18T02:01:54.945Z,962.7
2017-08-18T02:02:35.746Z,962.7
2017-08-18T02:03:16.546Z,962.7
2017-08-18T02:03:57.346Z,962.68
2017-08-18T02:04:38.147Z,962.67
2017-08-18T02:05:18.948Z,962.68
2017-08-18T02:05:59.747Z,962.67
2017-08-18T02:06:40.549Z,962.67
2017-08-18T02:07:21.353Z,962.68
2017-08-18T02:08:02.147Z,962.67
2017-08-18T02:08:42.948Z,962.65
2017-08-18T02:09:23.749Z,962.67
2017-08-18T02:10:04.548Z,962.68
2017-08-18T02:10:45.350Z,962.67
2017-08-18T02:11:26.150Z,962.67
2017-08-18T02:12:06.950Z,962.65
2017-08-18T02:12:47.750Z,962.67
2017-08-18T02:13:28.551Z,962.66
2017-08-18T02:14:09.351Z,962.64
2017-08-18T02:14:50.151Z,962.65
2017-08-18T02:15:30.951Z,962.64
2017-08-18T02:16:11.752Z,962.67
2017-08-18T02:16:52.552Z,962.64
2017-08-18T02:17:33.353Z,962.69
2017-08-18T02:18:14.153Z,962.64
2017-08-18T02:18:54.955Z,962.65
2017-08-18T02:21:23.397Z,962.67
2017-08-18T02:22:04.194Z,962.63
2017-08-18T02:22:44.994Z,962.69
2017-08-18T02:24:42.956Z,962.67
2017-08-18T02:25:23.755Z,962.69
2017-08-18T02:27:41.997Z,962.69
2017-08-18T02:28:22.796Z,962.66
2017-08-18T02:29:03.598Z,962.67
2017-08-18T02:29:44.397Z,962.7
2017-08-18T02:30:25.199Z,962.69
2017-08-18T02:31:05.998Z,962.7
2017-08-18T02:31:46.799Z,962.64
2017-08-18T02:32:27.599Z,962.67
2017-08-18T02:33:08.400Z,962.67
2017-08-18T02:33:49.201Z,962.7
2017-08-18T02:34:30.001Z,962.67
2017-08-18T02:35:10.801Z,962.67
2017-08-18T02:35:51.609Z,962.64
2017-08-18T02:36:32.402Z,962.64
2017-08-18T02:37:13.201Z,962.64
2017-08-18T02:37:54.002Z,962.67
2017-08-18T02:38:34.803Z,962.64
2017-08-18T02:39:15.603Z,962.61
2017-08-18T02:39:56.403Z,962.59
2017-08-18T02:40:37.203Z,962.61
2017-08-18T02:41:18.008Z,962.6
2017-08-18T02:41:58.803Z,962.55
2017-08-18T02:42:39.604Z,962.56
2017-08-18T02:43:20.404Z,962.57
2017-08-18T02:44:01.205Z,962.55
2017-08-18T02:44:42.004Z,962.57
2017-08-18T02:45:22.804Z,962.55
2017-08-18T02:46:03.605Z,962.53
2017-08-18T02:46:44.409Z,962.55
2017-08-18T02:47:39.966Z,962.54
2017-08-18T02:48:20.766Z,962.54
2017-08-18T02:49:01.567Z,962.53
2017-08-18T02:49:42.367Z,962.52
2017-08-18T02:50:23.168Z,962.48
2017-08-18T02:51:03.969Z,962.52
2017-08-18T02:51:59.561Z,962.44
2017-08-18T02:52:40.448Z,962.44
2017-08-18T02:53:21.249Z,962.46
2017-08-18T02:54:02.049Z,962.44
2017-08-18T02:54:42.849Z,962.44
2017-08-18T02:55:23.650Z,962.44
2017-08-18T02:56:04.450Z,962.38
2017-08-18T02:56:45.251Z,962.38
2017-08-18T02:57:26.051Z,962.39
2017-08-18T02:58:06.850Z,962.39
2017-08-18T02:58:47.651Z,962.36
2017-08-18T02:59:28.453Z,962.33
2017-08-18T03:00:09.252Z,962.35
2017-08-18T03:00:50.052Z,962.4
2017-08-18T03:01:46.468Z,962.38
2017-08-18T03:02:27.252Z,962.41
2017-08-18T03:03:08.052Z,962.38
2017-08-18T03:03:48.853Z,962.4
2017-08-18T03:04:29.654Z,962.38
2017-08-18T03:05:10.454Z,962.36
2017-08-18T03:05:51.254Z,962.34
2017-08-18T03:06:32.056Z,962.37
2017-08-18T03:07:12.854Z,962.33
2017-08-18T03:07:53.655Z,962.36
2017-08-18T03:08:34.457Z,962.36
2017-08-18T03:09:15.256Z,962.35
2017-08-18T03:09:56.056Z,962.34
2017-08-18T03:10:36.856Z,962.37
2017-08-18T03:12:55.097Z,962.43
2017-08-18T03:13:35.898Z,962.43
2017-08-18T03:14:16.698Z,962.41
2017-08-18T03:14:57.498Z,962.45
2017-08-18T03:15:38.299Z,962.44
2017-08-18T03:16:19.099Z,962.41
2017-08-18T03:16:59.899Z,962.44
2017-08-18T03:17:40.701Z,962.44
2017-08-18T03:18:21.500Z,962.44
2017-08-18T03:19:02.301Z,962.48
2017-08-18T03:19:43.120Z,962.45
2017-08-18T03:20:23.921Z,962.41
2017-08-18T03:21:04.701Z,962.45
2017-08-18T03:21:45.534Z,962.44
2017-08-18T03:22:28.357Z,962.46
2017-08-18T03:23:08.554Z,962.47
2017-08-18T03:23:50.323Z,962.44
2017-08-18T03:24:31.345Z,962.5
2017-08-18T03:26:45.144Z,962.5
2017-08-18T03:27:26.184Z,962.48
2017-08-18T03:28:07.223Z,962.47
2017-08-18T03:28:48.989Z,962.5
2017-08-18T03:29:29.304Z,962.48
2017-08-18T03:30:10.225Z,962.48
2017-08-18T03:30:51.266Z,962.51
2017-08-18T03:31:32.185Z,962.47
2017-08-18T03:32:13.106Z,962.5
2017-08-18T03:32:53.939Z,962.51
2017-08-18T03:33:34.947Z,962.5
2017-08-18T03:34:15.986Z,962.48
2017-08-18T03:34:56.789Z,962.5
2017-08-18T03:35:37.587Z,962.48
2017-08-18T03:36:18.391Z,962.49
2017-08-18T03:36:59.942Z,962.48
2017-08-18T03:37:40.473Z,962.48
2017-08-18T03:38:21.391Z,962.47
2017-08-18T03:39:02.310Z,962.46
2017-08-18T03:44:04.832Z,962.47
2017-08-18T03:44:45.632Z,962.45
2017-08-18T03:46:58.712Z,962.44
2017-08-18T03:47:39.512Z,962.45
2017-08-18T03:48:20.313Z,962.47
2017-08-18T03:49:01.256Z,962.45
2017-08-18T03:49:42.033Z,962.49
2017-08-18T03:50:22.835Z,962.47
2017-08-18T03:51:03.636Z,962.49
2017-08-18T03:51:44.435Z,962.48
2017-08-18T03:52:25.235Z,962.5
2017-08-18T03:53:06.844Z,962.49
2017-08-18T03:53:47.432Z,962.51
2017-08-18T03:54:28.022Z,962.53
2017-08-18T03:55:08.607Z,962.5
2017-08-18T03:55:49.194Z,962.52
2017-08-18T03:56:29.779Z,962.53
2017-08-18T03:57:10.360Z,962.53
2017-08-18T03:57:50.945Z,962.49
2017-08-18T03:58:31.532Z,962.51
2017-08-18T03:59:12.120Z,962.52
2017-08-18T03:59:52.700Z,962.48
2017-08-18T04:00:33.287Z,962.5
2017-08-18T04:01:25.553Z,962.52
2017-08-18T04:02:06.121Z,962.51
2017-08-18T04:02:46.705Z,962.51
2017-08-18T04:03:27.284Z,962.51
2017-08-18T04:04:07.871Z,962.5
2017-08-18T04:04:48.453Z,962.49
2017-08-18T04:05:29.042Z,962.52
2017-08-18T04:06:24.215Z,962.58
2017-08-18T04:07:04.811Z,962.54
2017-08-18T04:07:45.391Z,962.58
2017-08-18T04:08:25.980Z,962.53
2017-08-18T04:09:06.602Z,962.54
2017-08-18T04:09:47.180Z,962.53
2017-08-18T04:10:27.754Z,962.54
2017-08-18T04:11:08.332Z,962.56
2017-08-18T04:11:48.912Z,962.55
2017-08-18T04:12:29.502Z,962.55
2017-08-18T04:13:10.065Z,962.54
2017-08-18T04:13:50.647Z,962.53
2017-08-18T04:14:31.236Z,962.52
2017-08-18T04:15:11.824Z,962.53
2017-08-18T04:15:52.406Z,962.55
2017-08-18T04:16:32.998Z,962.52
2017-08-18T04:17:13.579Z,962.49
2017-08-18T04:17:54.162Z,962.51
2017-08-18T04:18:34.754Z,962.48
2017-08-18T04:19:15.334Z,962.48
2017-08-18T04:19:55.920Z,962.45
2017-08-18T04:20:36.506Z,962.42
2017-08-18T04:21:17.093Z,962.42
2017-08-18T04:21:57.682Z,962.44
2017-08-18T04:22:38.275Z,962.45
2017-08-18T04:23:18.855Z,962.42
2017-08-18T04:23:59.445Z,962.42
2017-08-18T04:24:40.031Z,962.45
2017-08-18T04:25:20.621Z,962.42
2017-08-18T04:26:01.206Z,962.42
2017-08-18T04:26:41.796Z,962.4
2017-08-18T04:27:22.377Z,962.4
2017-08-18T04:28:02.954Z,962.37
2017-08-18T04:28:59.299Z,962.39
2017-08-18T04:29:39.880Z,962.38
2017-08-18T04:30:20.463Z,962.37
2017-08-18T04:31:01.052Z,962.35
2017-08-18T04:31:41.636Z,962.35
2017-08-18T04:32:22.223Z,962.36
2017-08-18T04:33:02.803Z,962.36
2017-08-18T04:33:43.383Z,962.33
2017-08-18T04:34:23.968Z,962.36
2017-08-18T04:35:04.555Z,962.35
2017-08-18T04:35:45.138Z,962.34
2017-08-18T04:36:25.726Z,962.34
2017-08-18T04:37:06.316Z,962.34
2017-08-18T04:37:46.888Z,962.32
2017-08-18T04:38:27.470Z,962.32
2017-08-18T04:39:08.046Z,962.3
2017-08-18T04:39:48.628Z,962.32
2017-08-18T04:40:29.201Z,962.35
2017-08-18T04:41:09.784Z,962.33
2017-08-18T04:41:50.373Z,962.32
2017-08-18T04:42:30.954Z,962.28
2017-08-18T04:43:11.538Z,962.31
2017-08-18T04:43:52.109Z,962.31
2017-08-18T04:44:32.682Z,962.32
2017-08-18T04:45:13.263Z,962.33
2017-08-18T04:46:00.435Z,962.32
2017-08-18T04:46:41.016Z,962.32
2017-08-18T04:47:21.598Z,962.36
2017-08-18T04:48:02.174Z,962.37
2017-08-18T04:48:42.753Z,962.4
2017-08-18T04:49:23.350Z,962.38
2017-08-18T04:51:16.007Z,962.38
2017-08-18T04:53:08.611Z,962.37
2017-08-18T04:53:49.189Z,962.34
2017-08-18T04:54:29.774Z,962.39
2017-08-18T04:55:10.355Z,962.38
2017-08-18T04:55:50.941Z,962.34
2017-08-18T04:56:31.523Z,962.39
2017-08-18T04:57:12.100Z,962.36
2017-08-18T04:57:52.690Z,962.37
2017-08-18T04:58:33.277Z,962.37
2017-08-18T04:59:13.869Z,962.33
2017-08-18T04:59:54.447Z,962.35
2017-08-18T05:00:35.037Z,962.35
2017-08-18T05:01:15.619Z,962.33
2017-08-18T05:01:56.202Z,962.35
2017-08-18T05:03:53.948Z,962.39
2017-08-18T05:04:34.527Z,962.38
2017-08-18T05:05:15.119Z,962.38
2017-08-18T05:05:55.709Z,962.42
2017-08-18T05:06:36.297Z,962.36
2017-08-18T05:07:16.864Z,962.36
2017-08-18T05:07:57.467Z,962.37
2017-08-18T05:08:38.057Z,962.37
2017-08-18T05:09:18.639Z,962.4
2017-08-18T05:09:59.230Z,962.4
2017-08-18T05:10:39.818Z,962.36
2017-08-18T05:11:20.400Z,962.39
2017-08-18T05:12:19.660Z,962.38
2017-08-18T05:13:00.252Z,962.37
2017-08-18T05:13:40.831Z,962.34
2017-08-18T05:14:21.417Z,962.38
2017-08-18T05:15:02.000Z,962.37
2017-08-18T05:15:42.584Z,962.35
2017-08-18T05:16:23.170Z,962.33
2017-08-18T05:17:03.750Z,962.38
2017-08-18T05:17:44.340Z,962.34
2017-08-18T05:18:24.926Z,962.33
2017-08-18T05:19:05.504Z,962.35
2017-08-18T05:19:46.221Z,962.35
2017-08-18T05:20:26.996Z,962.32
2017-08-18T05:21:07.700Z,962.35
2017-08-18T05:21:48.284Z,962.37
2017-08-18T05:22:28.871Z,962.34
2017-08-18T05:23:09.454Z,962.37
2017-08-18T05:23:50.031Z,962.35
2017-08-18T05:24:30.618Z,962.36
2017-08-18T05:25:11.196Z,962.31
2017-08-18T05:25:51.793Z,962.31
2017-08-18T05:26:32.375Z,962.33
2017-08-18T05:27:12.948Z,962.33
2017-08-18T05:27:53.547Z,962.3
2017-08-18T05:28:34.125Z,962.32
2017-08-18T05:29:14.721Z,962.29
2017-08-18T05:29:55.293Z,962.32
2017-08-18T05:30:35.877Z,962.28
2017-08-18T05:31:16.456Z,962.31
2017-08-18T05:31:57.039Z,962.29
2017-08-18T05:32:37.623Z,962.29
2017-08-18T05:33:18.203Z,962.27
2017-08-18T05:33:58.769Z,962.3
2017-08-18T05:34:39.359Z,962.28
2017-08-18T05:35:19.937Z,962.29
2017-08-18T05:36:00.526Z,962.34
2017-08-18T05:36:41.109Z,962.32
2017-08-18T05:37:21.684Z,962.29
2017-08-18T05:38:02.272Z,962.3
2017-08-18T05:38:42.845Z,962.24
2017-08-18T05:39:23.443Z,962.28
2017-08-18T05:40:04.037Z,962.29
2017-08-18T05:40:44.618Z,962.25
2017-08-18T05:41:25.208Z,962.27
2017-08-18T05:42:05.792Z,962.28
2017-08-18T05:42:46.384Z,962.25
2017-08-18T05:43:26.966Z,962.28
2017-08-18T05:44:07.556Z,962.29
2017-08-18T05:44:48.131Z,962.29
2017-08-18T05:45:28.720Z,962.31
2017-08-18T05:46:09.301Z,962.3
2017-08-18T05:46:49.889Z,962.25
2017-08-18T05:47:30.472Z,962.3
2017-08-18T05:48:11.055Z,962.29
2017-08-18T05:48:51.640Z,962.29
2017-08-18T05:49:32.221Z,962.29
2017-08-18T05:50:12.800Z,962.31
2017-08-18T05:50:53.387Z,962.32
2017-08-18T05:51:33.973Z,962.33
2017-08-18T05:52:14.560Z,962.31
2017-08-18T05:52:55.147Z,962.29
2017-08-18T05:53:35.722Z,962.31
2017-08-18T05:54:16.300Z,962.32
2017-08-18T05:54:56.889Z,962.33
2017-08-18T05:55:37.458Z,962.32
2017-08-18T05:56:18.054Z,962.34
2017-08-18T05:57:07.688Z,962.34
2017-08-18T05:57:48.281Z,962.33
2017-08-18T05:58:28.862Z,962.31
2017-08-18T05:59:09.452Z,962.38
2017-08-18T05:59:50.034Z,962.42
2017-08-18T06:00:30.621Z,962.39
2017-08-18T06:01:11.202Z,962.42
2017-08-18T06:01:51.788Z,962.39
2017-08-18T06:02:32.367Z,962.4
2017-08-18T06:03:12.957Z,962.39
2017-08-18T06:03:53.544Z,962.37
2017-08-18T06:04:34.129Z,962.41
2017-08-18T06:05:14.711Z,962.37
2017-08-18T06:05:55.292Z,962.37
2017-08-18T06:06:35.879Z,962.39
2017-08-18T06:07:16.473Z,962.34
2017-08-18T06:07:57.058Z,962.36
2017-08-18T06:08:37.637Z,962.37
2017-08-18T06:09:18.227Z,962.33
2017-08-18T06:09:58.808Z,962.35
2017-08-18T06:10:39.387Z,962.35
2017-08-18T06:11:19.967Z,962.35
2017-08-18T06:12:00.547Z,962.35
2017-08-18T06:12:41.128Z,962.32
2017-08-18T06:13:21.698Z,962.35
2017-08-18T06:14:02.295Z,962.35
2017-08-18T06:14:42.882Z,962.31
2017-08-18T06:15:23.459Z,962.34
2017-08-18T06:16:04.043Z,962.33
2017-08-18T06:16:44.624Z,962.34
2017-08-18T06:17:25.209Z,962.35
2017-08-18T06:18:05.805Z,962.36
2017-08-18T06:18:46.391Z,962.34
2017-08-18T06:19:26.974Z,962.33
2017-08-18T06:20:07.544Z,962.33
2017-08-18T06:20:48.141Z,962.34
2017-08-18T06:21:28.732Z,962.32
2017-08-18T06:22:09.317Z,962.29
2017-08-18T06:22:49.907Z,962.31
2017-08-18T06:23:30.486Z,962.28
2017-08-18T06:24:11.080Z,962.28
2017-08-18T06:25:06.628Z,962.31
2017-08-18T06:25:47.210Z,962.31
2017-08-18T06:26:27.797Z,962.31
2017-08-18T06:28:45.796Z,962.28
2017-08-18T06:29:26.381Z,962.28
2017-08-18T06:31:18.975Z,962.22
2017-08-18T06:31:59.564Z,962.25
2017-08-18T06:32:40.141Z,962.18
2017-08-18T06:33:20.726Z,962.22
2017-08-18T06:34:01.305Z,962.23
2017-08-18T06:34:41.889Z,962.21
2017-08-18T06:35:22.466Z,962.21
2017-08-18T06:36:03.050Z,962.21
2017-08-18T06:36:43.634Z,962.22
2017-08-18T06:37:24.213Z,962.26
2017-08-18T06:38:04.798Z,962.23
2017-08-18T06:38:45.387Z,962.21
2017-08-18T06:39:25.969Z,962.22
2017-08-18T06:40:06.560Z,962.23
2017-08-18T06:40:47.137Z,962.27
2017-08-18T06:41:27.722Z,962.26
2017-08-18T06:42:08.304Z,962.26
2017-08-18T06:42:48.890Z,962.24
2017-08-18T06:43:29.479Z,962.22
2017-08-18T06:45:22.134Z,962.24
2017-08-18T06:46:02.724Z,962.25
2017-08-18T06:46:43.297Z,962.24
2017-08-18T06:47:23.891Z,962.25
2017-08-18T06:48:04.473Z,962.26
2017-08-18T06:48:45.074Z,962.24
2017-08-18T06:49:25.642Z,962.25
2017-08-18T06:50:06.228Z,962.26
2017-08-18T06:50:46.806Z,962.23
2017-08-18T06:51:27.393Z,962.21
2017-08-18T06:52:07.983Z,962.19
2017-08-18T06:52:48.569Z,962.2
2017-08-18T06:53:29.140Z,962.17
2017-08-18T06:54:09.733Z,962.15
2017-08-18T06:54:50.322Z,962.14
2017-08-18T06:55:30.911Z,962.12
2017-08-18T06:56:11.496Z,962.18
2017-08-18T06:56:52.086Z,962.14
2017-08-18T06:57:32.666Z,962.16
2017-08-18T06:58:13.244Z,962.2
2017-08-18T06:58:53.827Z,962.22
2017-08-18T06:59:34.401Z,962.24
2017-08-18T07:00:14.993Z,962.25
2017-08-18T07:00:55.579Z,962.24
2017-08-18T07:01:36.167Z,962.28
2017-08-18T07:02:16.757Z,962.26
2017-08-18T07:02:57.349Z,962.29
2017-08-18T07:03:37.936Z,962.29
2017-08-18T07:04:18.516Z,962.28
2017-08-18T07:04:59.104Z,962.3
2017-08-18T07:05:39.688Z,962.31
2017-08-18T07:06:20.278Z,962.29
2017-08-18T07:07:02.948Z,962.29
2017-08-18T07:07:43.533Z,962.28
2017-08-18T07:08:24.125Z,962.27
2017-08-18T07:09:04.709Z,962.29
2017-08-18T07:09:45.301Z,962.26
2017-08-18T07:10:25.882Z,962.21
2017-08-18T07:11:06.469Z,962.19
2017-08-18T07:11:47.050Z,962.19
2017-08-18T07:12:27.639Z,962.14
2017-08-18T07:13:08.218Z,962.1
2017-08-18T07:13:48.801Z,962.06
2017-08-18T07:14:29.382Z,962.03
2017-08-18T07:15:09.965Z,962.04
2017-08-18T07:15:50.552Z,962.02
2017-08-18T07:16:31.143Z,962.01
2017-08-18T07:17:11.723Z,962.01
2017-08-18T07:17:52.311Z,961.97
2017-08-18T07:18:32.896Z,961.98
2017-08-18T07:19:13.488Z,961.95
2017-08-18T07:19:54.074Z,961.97
2017-08-18T07:20:34.667Z,961.94
2017-08-18T07:21:15.274Z,961.94
2017-08-18T07:21:55.828Z,961.89
2017-08-18T07:22:36.416Z,961.88
2017-08-18T07:23:17.004Z,961.9
2017-08-18T07:23:57.596Z,961.84
2017-08-18T07:24:38.180Z,961.83
2017-08-18T07:25:18.765Z,961.78
2017-08-18T07:25:59.356Z,961.85
2017-08-18T07:26:39.939Z,961.86
2017-08-18T07:27:20.524Z,961.88
2017-08-18T07:28:01.111Z,961.91
2017-08-18T07:28:41.693Z,961.9
2017-08-18T07:29:22.282Z,961.91
2017-08-18T07:30:02.871Z,961.92
2017-08-18T07:30:43.460Z,961.93
2017-08-18T07:31:24.045Z,961.93
2017-08-18T07:32:04.630Z,961.94
2017-08-18T07:32:45.216Z,961.97
2017-08-18T07:33:25.801Z,961.98
2017-08-18T07:34:06.384Z,961.99
2017-08-18T07:34:46.976Z,962.01
2017-08-18T07:35:27.555Z,962.07
2017-08-18T07:36:08.134Z,962.07
2017-08-18T07:36:48.730Z,962.09
2017-08-18T07:37:29.316Z,962.12
2017-08-18T07:38:09.904Z,962.17
2017-08-18T07:38:50.486Z,962.13
2017-08-18T07:39:31.071Z,962.12
2017-08-18T07:40:11.664Z,962.13
2017-08-18T07:40:52.253Z,962.13
2017-08-18T07:41:32.836Z,962.1
2017-08-18T07:42:13.425Z,962.1
2017-08-18T07:42:54.006Z,962.08
2017-08-18T07:43:34.598Z,962.11
2017-08-18T07:44:15.186Z,962.14
2017-08-18T07:44:55.775Z,962.08
2017-08-18T07:45:36.354Z,962.11
2017-08-18T07:46:16.944Z,962.11
2017-08-18T07:46:57.526Z,962.12
2017-08-18T07:47:38.110Z,962.12
2017-08-18T07:48:18.704Z,962.15
2017-08-18T07:48:59.293Z,962.17
2017-08-18T07:49:39.885Z,962.14
2017-08-18T07:50:20.463Z,962.13
2017-08-18T07:51:01.048Z,962.17
2017-08-18T07:51:41.626Z,962.16
2017-08-18T07:52:22.202Z,962.16
2017-08-18T07:53:02.790Z,962.17
2017-08-18T07:53:43.378Z,962.19
2017-08-18T07:54:23.965Z,962.19
2017-08-18T07:55:04.553Z,962.21
2017-08-18T07:55:45.162Z,962.24
2017-08-18T07:56:25.726Z,962.19
2017-08-18T07:57:06.314Z,962.15
2017-08-18T07:57:46.912Z,962.17
2017-08-18T07:58:27.501Z,962.17
2017-08-18T07:59:08.091Z,962.18
2017-08-18T07:59:48.663Z,962.15
2017-08-18T08:00:29.249Z,962.17
2017-08-18T08:01:09.831Z,962.13
2017-08-18T08:01:50.412Z,962.12
2017-08-18T08:02:30.997Z,962.11
2017-08-18T08:03:11.578Z,962.1
2017-08-18T08:03:52.169Z,962.09
2017-08-18T08:04:32.756Z,962.09
2017-08-18T08:05:13.331Z,962.07
2017-08-18T08:05:53.925Z,962.03
2017-08-18T08:06:34.510Z,962.07
2017-08-18T08:07:15.101Z,962.04
2017-08-18T08:07:55.692Z,961.98
2017-08-18T08:08:36.274Z,961.96
2017-08-18T08:09:16.862Z,961.95
2017-08-18T08:09:57.448Z,961.93
2017-08-18T08:10:38.023Z,961.91
2017-08-18T08:11:18.608Z,961.91
2017-08-18T08:11:59.193Z,961.87
2017-08-18T08:12:39.764Z,961.82
2017-08-18T08:13:20.351Z,961.81
2017-08-18T08:14:00.934Z,961.85
2017-08-18T08:14:41.506Z,961.82
2017-08-18T08:15:22.088Z,961.83
2017-08-18T08:16:02.673Z,961.87
2017-08-18T08:16:43.252Z,961.86
2017-08-18T08:17:23.844Z,961.85
2017-08-18T08:18:04.420Z,961.83
2017-08-18T08:18:45.002Z,961.83
2017-08-18T08:19:25.592Z,961.8
2017-08-18T08:20:06.175Z,961.8
2017-08-18T08:22:24.686Z,961.77
2017-08-18T08:23:05.267Z,961.82
2017-08-18T08:23:45.852Z,961.79
2017-08-18T08:24:26.435Z,961.81
2017-08-18T08:25:07.026Z,961.83
2017-08-18T08:25:47.605Z,961.83
2017-08-18T08:26:28.198Z,961.84
2017-08-18T08:27:08.782Z,961.83
2017-08-18T08:27:49.369Z,961.81
2017-08-18T08:28:29.960Z,961.83
2017-08-18T08:29:10.540Z,961.84
2017-08-18T08:29:51.119Z,961.86
2017-08-18T08:30:31.711Z,961.83
2017-08-18T08:31:12.294Z,961.83
2017-08-18T08:31:52.865Z,961.84
2017-08-18T08:32:33.453Z,961.84
2017-08-18T08:33:14.027Z,961.85
2017-08-18T08:33:54.615Z,961.81
2017-08-18T08:34:35.194Z,961.79
2017-08-18T08:35:15.795Z,961.81
2017-08-18T08:35:56.372Z,961.79
2017-08-18T08:36:36.952Z,961.82
2017-08-18T08:37:17.534Z,961.79
2017-08-18T08:37:58.123Z,961.78
2017-08-18T08:38:38.705Z,961.79
2017-08-18T08:39:19.293Z,961.77
2017-08-18T08:39:59.880Z,961.79
2017-08-18T08:40:40.470Z,961.76
2017-08-18T08:41:21.059Z,961.74
2017-08-18T08:42:01.637Z,961.78
2017-08-18T08:42:42.226Z,961.77
2017-08-18T08:43:22.813Z,961.74
2017-08-18T08:44:03.411Z,961.77
2017-08-18T08:44:44.012Z,961.78
2017-08-18T08:45:24.603Z,961.79
2017-08-18T08:46:05.187Z,961.79
2017-08-18T08:46:45.764Z,961.78
2017-08-18T08:47:26.344Z,961.78
2017-08-18T08:48:06.928Z,961.81
2017-08-18T08:48:47.519Z,961.78
2017-08-18T08:49:38.736Z,961.81
2017-08-18T08:50:19.330Z,961.84
2017-08-18T08:50:59.988Z,961.81
2017-08-18T08:51:40.578Z,961.77
2017-08-18T08:52:21.162Z,961.76
2017-08-18T08:53:01.759Z,961.75
2017-08-18T08:53:42.340Z,961.73
2017-08-18T08:54:22.934Z,961.72
2017-08-18T08:55:03.497Z,961.74
2017-08-18T08:55:44.089Z,961.7
2017-08-18T08:56:24.668Z,961.68
2017-08-18T08:57:05.255Z,961.7
2017-08-18T08:57:45.849Z,961.69
2017-08-18T08:58:26.435Z,961.67
2017-08-18T08:59:07.004Z,961.66